Time;durP1;ratioP1;P1;durP2;ratioP2;P2;SDS_P1;SDS_P2;PMS_P1;PMS_P2;Temp;Humidity;BMP_temperature;BMP_pressure;BME280_temperature;BME280_humidity;BME280_pressure;Samples;Min_cycle;Max_cycle;Signal;HPM_P1;HPM_P2
2023/08/25 00:02:15;;;;;;;13.23;11.77;;;;;;;18.11;100.00;100768.00;5067440;28;20032;-77
2023/08/25 00:04:40;;;;;;;13.68;11.32;;;;;;;18.04;100.00;100768.16;5076994;28;20115;-77
2023/08/25 00:07:07;;;;;;;13.57;12.10;;;;;;;17.98;100.00;100769.16;5079715;28;20032;-77
2023/08/25 00:09:32;;;;;;;15.40;13.65;;;;;;;17.94;100.00;100768.81;5084892;28;20020;-77
2023/08/25 00:11:58;;;;;;;14.15;12.60;;;;;;;17.87;100.00;100763.53;5079397;28;20106;-76
2023/08/25 00:14:23;;;;;;;15.98;14.27;;;;;;;17.87;100.00;100749.06;5087901;28;20773;-77
2023/08/25 00:16:49;;;;;;;15.25;13.65;;;;;;;17.90;100.00;100756.75;5088904;28;20024;-77
2023/08/25 00:19:17;;;;;;;18.15;14.02;;;;;;;17.97;100.00;100768.31;5090773;28;20051;-77
2023/08/25 00:21:42;;;;;;;14.30;12.80;;;;;;;18.10;100.00;100763.63;5087865;28;20032;-76
2023/08/25 00:24:08;;;;;;;14.20;12.68;;;;;;;18.22;100.00;100758.06;5092104;28;20027;-76
2023/08/25 00:26:33;;;;;;;13.82;12.45;;;;;;;18.27;100.00;100764.41;5103999;28;20030;-75
2023/08/25 00:28:58;;;;;;;12.90;11.60;;;;;;;18.27;100.00;100764.41;5111508;28;20030;-76
2023/08/25 00:31:24;;;;;;;14.98;12.98;;;;;;;18.17;100.00;100758.84;5091245;28;20047;-77
2023/08/25 00:33:49;;;;;;;14.45;11.93;;;;;;;18.05;100.00;100764.38;5090632;28;20048;-77
2023/08/25 00:36:15;;;;;;;14.73;12.73;;;;;;;17.93;100.00;100761.72;5089197;28;20032;-76
2023/08/25 00:38:43;;;;;;;15.38;12.82;;;;;;;18.02;100.00;100762.16;5091866;28;20073;-77
2023/08/25 00:41:09;;;;;;;14.43;12.98;;;;;;;18.03;100.00;100759.16;5089533;28;20026;-78
2023/08/25 00:43:34;;;;;;;16.88;14.45;;;;;;;17.93;100.00;100760.88;5090964;28;20019;-78
2023/08/25 00:46:00;;;;;;;15.18;13.68;;;;;;;17.91;100.00;100758.41;5091859;28;20460;-76
2023/08/25 00:48:26;;;;;;;15.23;13.63;;;;;;;17.99;100.00;100760.75;5073368;28;20016;-79
2023/08/25 00:50:53;;;;;;;15.73;13.52;;;;;;;17.96;100.00;100753.03;5065902;28;20024;-75
2023/08/25 00:53:18;;;;;;;15.27;13.05;;;;;;;18.01;100.00;100747.69;5091940;28;20031;-75
2023/08/25 00:55:44;;;;;;;15.20;13.40;;;;;;;18.03;100.00;100756.44;5086935;28;20032;-76
2023/08/25 00:58:09;;;;;;;14.52;13.02;;;;;;;17.96;100.00;100754.94;5093284;28;20454;-76
2023/08/25 01:00:35;;;;;;;14.95;13.38;;;;;;;17.84;100.00;100749.56;5092055;28;20029;-76
2023/08/25 01:03:00;;;;;;;16.88;14.23;;;;;;;17.73;100.00;100754.84;5089991;28;20084;-76
2023/08/25 01:05:26;;;;;;;16.08;14.40;;;;;;;17.79;100.00;100755.75;5066614;28;20024;-76
2023/08/25 01:07:51;;;;;;;17.70;15.30;;;;;;;17.76;100.00;100767.16;5086485;28;20032;-76
2023/08/25 01:10:16;;;;;;;17.58;15.45;;;;;;;17.67;100.00;100758.56;5085758;28;20036;-76
2023/08/25 01:12:52;;;;;;;17.15;15.35;;;;;;;17.77;100.00;100762.53;5059918;28;20412;-75
2023/08/25 01:15:26;;;;;;;17.67;15.73;;;;;;;17.81;100.00;100763.69;5072722;28;20443;-75
2023/08/25 01:18:04;;;;;;;18.35;16.05;;;;;;;17.85;100.00;100757.50;5071360;28;20051;-75
2023/08/25 01:20:29;;;;;;;17.83;15.60;;;;;;;17.90;100.00;100761.38;5054674;28;20043;-75
2023/08/25 01:23:17;;;;;;;17.63;15.82;;;;;;;17.91;100.00;100755.69;5036138;28;20021;-75
2023/08/25 01:25:42;;;;;;;17.45;15.65;;;;;;;17.83;100.00;100751.47;5071135;28;20472;-75
2023/08/25 01:28:07;;;;;;;18.00;16.10;;;;;;;17.80;100.00;100751.97;5033690;28;20020;-75
2023/08/25 01:30:34;;;;;;;18.70;16.38;;;;;;;17.74;100.00;100752.94;5070295;28;20028;-76
2023/08/25 01:33:00;;;;;;;17.95;16.13;;;;;;;17.77;100.00;100757.09;5071844;28;20074;-75
2023/08/25 01:35:31;;;;;;;18.45;16.60;;;;;;;17.69;100.00;100755.59;5071477;28;20469;-75
2023/08/25 01:37:59;;;;;;;19.77;16.67;;;;;;;17.62;100.00;100742.16;5069074;28;20568;-76
2023/08/25 01:40:29;;;;;;;18.90;16.90;;;;;;;17.63;100.00;100743.81;5053820;28;20108;-76
2023/08/25 01:42:54;;;;;;;20.20;18.13;;;;;;;17.57;100.00;100747.50;5072075;28;20051;-76
2023/08/25 01:45:21;;;;;;;21.25;18.33;;;;;;;17.54;100.00;100748.00;5038906;28;20028;-76
2023/08/25 01:47:47;;;;;;;19.30;17.35;;;;;;;17.60;100.00;100741.59;5036408;28;20031;-76
2023/08/25 01:50:12;;;;;;;21.63;19.08;;;;;;;17.51;100.00;100745.78;5086879;28;20131;-76
2023/08/25 01:52:37;;;;;;;21.55;19.25;;;;;;;17.42;100.00;100739.91;5036021;28;20077;-75
2023/08/25 01:55:03;;;;;;;23.88;21.05;;;;;;;17.36;100.00;100736.28;5071576;28;20037;-76
2023/08/25 01:57:29;;;;;;;23.13;20.38;;;;;;;17.29;100.00;100735.63;5069097;28;20657;-76
2023/08/25 01:59:54;;;;;;;25.08;20.83;;;;;;;17.24;100.00;100727.38;5071588;28;20025;-76
2023/08/25 02:02:19;;;;;;;22.27;19.25;;;;;;;17.26;100.00;100727.94;5073505;28;20044;-76
2023/08/25 02:04:45;;;;;;;22.70;19.90;;;;;;;17.24;100.00;100725.44;5070818;28;20033;-76
2023/08/25 02:07:10;;;;;;;25.35;20.65;;;;;;;17.21;100.00;100734.09;5070820;28;20032;-76
2023/08/25 02:09:36;;;;;;;26.15;21.33;;;;;;;17.18;100.00;100722.88;5071995;28;20356;-76
2023/08/25 02:12:01;;;;;;;24.95;20.35;;;;;;;17.19;100.00;100724.53;5068783;28;20041;-76
2023/08/25 02:14:26;;;;;;;23.17;20.67;;;;;;;17.27;100.00;100726.88;5071024;28;20036;-76
2023/08/25 02:16:52;;;;;;;22.60;20.30;;;;;;;17.42;100.00;100740.75;5076348;28;20407;-75
2023/08/25 02:19:17;;;;;;;20.45;18.35;;;;;;;17.56;100.00;100729.53;5070554;28;20043;-77
2023/08/25 02:21:43;;;;;;;20.55;18.33;;;;;;;17.60;100.00;100727.97;5072354;28;20025;-75
2023/08/25 02:24:09;;;;;;;20.85;18.65;;;;;;;17.65;100.00;100729.94;5052613;28;20032;-76
2023/08/25 02:26:34;;;;;;;21.10;18.90;;;;;;;17.65;100.00;100730.75;5065500;28;20417;-76
2023/08/25 02:29:00;;;;;;;21.05;18.83;;;;;;;17.58;100.00;100730.13;5075235;28;20435;-76
2023/08/25 02:31:25;;;;;;;21.95;19.63;;;;;;;17.63;100.00;100727.50;5068726;28;20028;-77
2023/08/25 02:33:50;;;;;;;21.65;19.40;;;;;;;17.59;100.00;100723.59;5078599;28;20028;-77
2023/08/25 02:36:16;;;;;;;22.10;19.42;;;;;;;17.55;100.00;100722.44;5075712;28;20492;-76
2023/08/25 02:38:41;;;;;;;22.67;20.27;;;;;;;17.50;100.00;100711.47;5071889;28;20033;-76
2023/08/25 02:41:08;;;;;;;22.13;19.83;;;;;;;17.47;100.00;100711.97;5069966;28;20051;-76
2023/08/25 02:43:33;;;;;;;25.42;21.48;;;;;;;17.44;100.00;100705.13;5077758;28;20020;-76
2023/08/25 02:45:59;;;;;;;21.83;19.48;;;;;;;17.40;100.00;100704.78;5071432;28;20380;-76
2023/08/25 02:48:25;;;;;;;22.88;20.50;;;;;;;17.36;100.00;100709.06;5074802;28;20044;-76
2023/08/25 02:50:52;;;;;;;22.48;19.95;;;;;;;17.36;100.00;100689.22;5069662;28;20039;-76
2023/08/25 02:53:17;;;;;;;23.63;21.08;;;;;;;17.33;100.00;100692.41;5070739;28;20044;-76
2023/08/25 02:55:43;;;;;;;24.35;19.90;;;;;;;17.32;100.00;100690.75;5068486;28;20399;-76
2023/08/25 02:58:08;;;;;;;24.23;20.45;;;;;;;17.30;100.00;100693.72;5070275;28;20029;-76
2023/08/25 03:00:34;;;;;;;25.05;21.42;;;;;;;17.30;100.00;100682.03;5067017;28;20315;-76
2023/08/25 03:02:59;;;;;;;27.60;22.65;;;;;;;17.34;100.00;100683.19;5067720;28;20024;-76
2023/08/25 03:05:25;;;;;;;25.08;21.40;;;;;;;17.36;100.00;100679.13;5070362;28;20028;-76
2023/08/25 03:07:51;;;;;;;26.58;22.02;;;;;;;17.41;100.00;100670.22;5077964;28;20047;-76
2023/08/25 03:10:17;;;;;;;25.35;21.65;;;;;;;17.45;100.00;100674.09;5072057;28;20037;-76
2023/08/25 03:12:42;;;;;;;28.10;22.95;;;;;;;17.49;100.00;100674.44;5064375;28;20040;-77
2023/08/25 03:15:08;;;;;;;24.95;21.88;;;;;;;17.72;100.00;100674.25;5069869;28;20020;-77
2023/08/25 03:17:34;;;;;;;23.15;20.15;;;;;;;17.83;100.00;100668.94;5071741;28;20061;-76
2023/08/25 03:19:59;;;;;;;23.60;21.02;;;;;;;17.79;100.00;100662.38;5072192;28;20047;-76
2023/08/25 03:22:25;;;;;;;22.48;20.08;;;;;;;17.77;100.00;100659.06;5077208;28;20040;-76
2023/08/25 03:24:50;;;;;;;23.38;20.83;;;;;;;17.77;100.00;100656.34;5086371;28;20028;-77
2023/08/25 03:27:16;;;;;;;24.23;20.80;;;;;;;17.77;100.00;100650.91;5069865;28;20025;-77
2023/08/25 03:29:42;;;;;;;24.23;20.40;;;;;;;17.77;100.00;100650.91;5070515;28;20469;-77
2023/08/25 03:32:07;;;;;;;21.85;19.45;;;;;;;17.78;100.00;100641.66;5068812;28;20025;-77
2023/08/25 03:34:32;;;;;;;24.48;21.17;;;;;;;17.80;100.00;100636.81;5068635;28;20021;-77
2023/08/25 03:36:58;;;;;;;23.17;20.73;;;;;;;17.81;100.00;100639.25;5071149;28;20406;-76
2023/08/25 03:39:24;;;;;;;23.48;20.75;;;;;;;17.82;100.00;100643.63;5068110;28;20069;-77
2023/08/25 03:41:49;;;;;;;22.02;19.73;;;;;;;17.98;100.00;100647.44;5069226;28;20381;-77
2023/08/25 03:44:15;;;;;;;21.75;18.98;;;;;;;18.16;100.00;100650.94;5069751;28;20503;-76
2023/08/25 03:46:40;;;;;;;21.23;19.10;;;;;;;18.16;100.00;100645.47;5069338;28;20036;-76
2023/08/25 03:49:06;;;;;;;21.42;18.83;;;;;;;18.15;100.00;100644.66;5067360;28;20106;-77
2023/08/25 03:51:32;;;;;;;21.58;19.38;;;;;;;18.18;100.00;100643.31;5070714;28;20020;-77
2023/08/25 03:53:58;;;;;;;20.45;18.45;;;;;;;18.17;100.00;100641.69;5070169;28;20040;-78
2023/08/25 03:56:23;;;;;;;22.30;19.88;;;;;;;18.08;100.00;100640.47;5068480;28;20062;-76
2023/08/25 03:58:49;;;;;;;22.35;19.65;;;;;;;18.02;100.00;100636.84;5068422;28;20438;-77
2023/08/25 04:01:14;;;;;;;22.80;20.38;;;;;;;17.97;100.00;100631.28;5069716;28;20028;-76
2023/08/25 04:03:40;;;;;;;22.13;19.55;;;;;;;18.00;100.00;100636.28;5068403;28;20024;-77
2023/08/25 04:06:06;;;;;;;21.02;18.92;;;;;;;18.07;100.00;100630.63;5069629;28;20031;-77
2023/08/25 04:08:31;;;;;;;23.90;19.63;;;;;;;18.06;100.00;100640.72;5066629;28;20037;-76
2023/08/25 04:10:57;;;;;;;22.75;20.38;;;;;;;17.98;100.00;100633.81;5069102;28;20025;-77
2023/08/25 04:13:22;;;;;;;23.27;20.23;;;;;;;17.97;100.00;100626.69;5063961;28;20048;-77
2023/08/25 04:15:56;;;;;;;25.73;20.52;;;;;;;17.95;100.00;100628.84;5071367;28;20070;-77
2023/08/25 04:18:21;;;;;;;24.42;20.42;;;;;;;17.94;100.00;100627.19;5064291;28;20560;-77
2023/08/25 04:20:47;;;;;;;22.75;20.35;;;;;;;17.92;100.00;100615.72;5069729;28;20476;-77
2023/08/25 04:23:12;;;;;;;22.58;20.13;;;;;;;17.91;100.00;100622.25;5069826;28;20078;-77
2023/08/25 04:25:38;;;;;;;24.20;21.52;;;;;;;17.90;100.00;100614.34;5065225;28;20025;-77
2023/08/25 04:28:03;;;;;;;26.13;21.65;;;;;;;17.90;100.00;100614.34;5064350;28;20032;-77
2023/08/25 04:30:29;;;;;;;26.75;21.25;;;;;;;17.91;100.00;100616.78;5070674;28;20400;-76
2023/08/25 04:32:54;;;;;;;23.17;20.73;;;;;;;17.90;100.00;100614.34;5065064;28;20028;-77
2023/08/25 04:35:19;;;;;;;24.40;20.27;;;;;;;17.90;100.00;100620.59;5069442;28;20036;-77
2023/08/25 04:37:47;;;;;;;26.60;21.70;;;;;;;17.90;100.00;100620.59;5070244;28;20029;-77
2023/08/25 04:40:14;;;;;;;23.77;21.17;;;;;;;17.88;100.00;100633.63;5069414;28;20032;-77
2023/08/25 04:42:40;;;;;;;25.65;21.58;;;;;;;17.89;100.00;100624.38;5061196;28;20073;-77
2023/08/25 04:45:06;;;;;;;23.88;21.25;;;;;;;17.90;100.00;100633.41;5067002;28;20024;-77
2023/08/25 04:47:32;;;;;;;24.52;21.13;;;;;;;17.96;100.00;100626.94;5067643;28;20076;-77
2023/08/25 04:49:57;;;;;;;26.20;21.40;;;;;;;17.99;100.00;100623.72;5069500;28;20082;-80
2023/08/25 04:52:23;;;;;;;25.75;22.73;;;;;;;17.97;100.00;100632.13;5067449;28;20085;-78
2023/08/25 04:54:49;;;;;;;23.80;21.25;;;;;;;18.02;100.00;100618.59;5068706;28;20017;-79
2023/08/25 04:57:14;;;;;;;24.92;21.20;;;;;;;18.06;100.00;100623.53;5068971;28;20116;-78
2023/08/25 04:59:40;;;;;;;28.10;22.60;;;;;;;18.05;100.00;100617.28;5069292;28;20498;-78
2023/08/25 05:02:05;;;;;;;25.20;21.73;;;;;;;18.07;100.00;100625.19;5050053;28;20052;-78
2023/08/25 05:04:31;;;;;;;24.45;21.35;;;;;;;18.10;100.00;100613.78;5068255;28;20055;-78
2023/08/25 05:06:56;;;;;;;26.65;22.80;;;;;;;18.12;100.00;100611.66;5068326;28;20037;-77
2023/08/25 05:09:21;;;;;;;26.05;21.42;;;;;;;18.17;100.00;100619.88;5069527;28;20021;-78
2023/08/25 05:11:47;;;;;;;27.60;23.90;;;;;;;18.14;100.00;100607.56;5064253;28;20066;-78
2023/08/25 05:14:13;;;;;;;25.95;23.25;;;;;;;18.25;100.00;100608.53;5067869;28;20027;-78
2023/08/25 05:16:39;;;;;;;26.77;22.67;;;;;;;18.28;100.00;100608.03;5067253;28;20036;-78
2023/08/25 05:19:05;;;;;;;25.40;22.63;;;;;;;18.39;100.00;100610.84;5068308;28;20024;-78
2023/08/25 05:21:30;;;;;;;25.48;21.90;;;;;;;18.49;100.00;100614.53;5068912;28;20028;-79
2023/08/25 05:24:18;;;;;;;26.05;23.25;;;;;;;18.57;100.00;100601.53;5067995;28;20021;-78
2023/08/25 05:26:44;;;;;;;24.35;21.73;;;;;;;18.64;100.00;100608.41;5068642;28;20059;-78
2023/08/25 05:29:09;;;;;;;114.80;25.95;;;;;;;18.73;100.00;100606.03;5068013;28;20508;-79
2023/08/25 05:31:34;;;;;;;24.25;21.65;;;;;;;18.81;100.00;100604.75;5067366;28;20028;-80
2023/08/25 05:34:00;;;;;;;22.70;20.40;;;;;;;18.96;100.00;100606.00;5068143;28;20111;-75
2023/08/25 05:36:25;;;;;;;25.48;22.80;;;;;;;18.96;100.00;100604.13;5066701;28;20029;-76
2023/08/25 05:38:51;;;;;;;24.23;21.73;;;;;;;19.07;100.00;100611.28;5064644;28;20399;-75
2023/08/25 05:41:16;;;;;;;22.83;20.50;;;;;;;19.29;100.00;100606.81;5065859;28;20035;-75
2023/08/25 05:43:41;;;;;;;23.45;21.23;;;;;;;19.26;100.00;100612.78;5066001;28;20487;-76
2023/08/25 05:46:07;;;;;;;22.92;20.63;;;;;;;19.45;100.00;100608.56;5065961;28;20044;-75
2023/08/25 05:48:32;;;;;;;21.20;19.15;;;;;;;19.59;100.00;100605.38;5062539;28;20444;-75
2023/08/25 05:50:57;;;;;;;23.38;20.98;;;;;;;19.77;100.00;100602.19;5061001;28;20028;-76
2023/08/25 05:53:24;;;;;;;20.92;18.92;;;;;;;19.91;100.00;100601.78;5067252;28;20024;-76
2023/08/25 05:55:50;;;;;;;22.23;20.08;;;;;;;19.96;100.00;100608.06;5067498;28;20036;-76
2023/08/25 05:58:15;;;;;;;23.80;20.88;;;;;;;19.96;100.00;100605.34;5071177;28;20028;-76
2023/08/25 06:00:41;;;;;;;24.88;21.23;;;;;;;19.89;100.00;100598.47;5069756;28;20490;-75
2023/08/25 06:03:08;;;;;;;23.40;21.00;;;;;;;19.79;100.00;100608.22;5070135;28;20067;-76
2023/08/25 06:05:33;;;;;;;23.15;20.90;;;;;;;19.78;100.00;100592.91;5071358;28;20020;-76
2023/08/25 06:07:59;;;;;;;22.73;20.52;;;;;;;19.77;100.00;100588.53;5070708;28;20059;-76
2023/08/25 06:10:25;;;;;;;22.50;20.08;;;;;;;19.81;100.00;100595.13;5071365;28;20120;-76
2023/08/25 06:12:50;;;;;;;23.63;21.13;;;;;;;19.75;100.00;100590.75;5071481;28;20120;-77
2023/08/25 06:15:16;;;;;;;23.85;21.40;;;;;;;19.80;100.00;100588.00;5071137;28;20377;-76
2023/08/25 06:17:41;;;;;;;23.48;21.08;;;;;;;20.07;100.00;100598.00;5054129;28;20447;-76
2023/08/25 06:20:07;;;;;;;23.13;20.70;;;;;;;20.24;100.00;100591.50;5081789;28;20182;-76
2023/08/25 06:22:33;;;;;;;24.00;21.65;;;;;;;20.19;100.00;100591.47;5081611;28;20044;-76
2023/08/25 06:24:58;;;;;;;22.70;20.48;;;;;;;20.31;100.00;100583.84;5070989;28;20022;-76
2023/08/25 06:27:24;;;;;;;23.67;21.25;;;;;;;20.10;100.00;100586.56;5071405;28;20579;-76
2023/08/25 06:29:50;;;;;;;23.63;21.23;;;;;;;20.26;100.00;100589.34;5063209;28;20024;-76
2023/08/25 06:32:18;;;;;;;21.20;19.10;;;;;;;20.67;100.00;100594.88;5069531;28;20048;-76
2023/08/25 06:34:48;;;;;;;21.58;19.30;;;;;;;20.88;98.28;100597.66;5066053;28;20032;-76
2023/08/25 06:37:13;;;;;;;22.55;20.25;;;;;;;21.16;98.81;100598.22;5071332;28;20024;-75
2023/08/25 06:39:40;;;;;;;21.80;19.65;;;;;;;21.66;96.52;100595.69;5068479;28;20020;-75
2023/08/25 06:42:05;;;;;;;21.38;19.30;;;;;;;21.78;91.54;100603.63;5069871;28;20564;-75
2023/08/25 06:44:32;;;;;;;21.33;19.20;;;;;;;21.88;90.11;100614.56;5067894;28;20025;-75
2023/08/25 06:46:57;;;;;;;19.42;17.63;;;;;;;21.77;92.45;100627.47;5068917;28;20043;-75
2023/08/25 06:49:22;;;;;;;19.25;17.25;;;;;;;21.73;90.86;100623.66;5069035;28;20042;-77
2023/08/25 06:51:48;;;;;;;18.48;16.48;;;;;;;21.66;90.90;100623.09;5069003;28;20048;-78
2023/08/25 06:54:14;;;;;;;22.40;20.13;;;;;;;21.20;94.63;100633.00;5065129;28;20051;-75
2023/08/25 06:56:39;;;;;;;20.83;18.60;;;;;;;20.80;96.26;100634.59;5066651;28;20051;-75
2023/08/25 06:59:05;;;;;;;21.27;19.13;;;;;;;20.37;99.92;100632.00;5069396;28;20021;-76
2023/08/25 07:01:30;;;;;;;23.02;20.63;;;;;;;20.25;100.00;100628.69;5068500;28;20068;-75
2023/08/25 07:03:55;;;;;;;21.52;19.23;;;;;;;20.08;100.00;100632.44;5067126;28;20078;-75
2023/08/25 07:06:21;;;;;;;21.55;19.33;;;;;;;20.19;100.00;100635.22;5069471;28;20035;-75
2023/08/25 07:08:46;;;;;;;22.33;19.10;;;;;;;20.17;100.00;100631.91;5069468;28;20093;-76
2023/08/25 07:11:12;;;;;;;22.80;20.40;;;;;;;19.91;100.00;100623.63;5070023;28;20029;-74
2023/08/25 07:13:37;;;;;;;23.17;20.98;;;;;;;19.71;100.00;100606.00;5069336;28;20402;-75
2023/08/25 07:16:03;;;;;;;23.70;20.98;;;;;;;19.54;100.00;100603.44;5069258;28;20028;-76
2023/08/25 07:18:30;;;;;;;21.88;19.77;;;;;;;19.44;100.00;100609.63;5069683;28;20202;-76
2023/08/25 07:20:55;;;;;;;21.15;18.95;;;;;;;19.37;100.00;100615.34;5069618;28;20028;-77
2023/08/25 07:23:21;;;;;;;23.38;21.00;;;;;;;19.31;100.00;100621.03;5067159;28;20063;-76
2023/08/25 07:25:46;;;;;;;23.27;20.38;;;;;;;19.29;100.00;100618.56;5070056;28;20024;-76
2023/08/25 07:28:11;;;;;;;23.02;19.80;;;;;;;19.31;100.00;100610.94;5069306;28;20035;-75
2023/08/25 07:30:37;;;;;;;22.58;20.30;;;;;;;19.30;100.00;100603.84;5068671;28;20376;-76
2023/08/25 07:33:04;;;;;;;22.88;19.88;;;;;;;19.24;100.00;100592.03;5069778;28;20100;-75
2023/08/25 07:35:32;;;;;;;21.63;19.27;;;;;;;19.21;100.00;100592.59;5069445;28;20098;-75
2023/08/25 07:37:57;;;;;;;23.08;20.58;;;;;;;19.18;100.00;100590.38;5049792;28;20027;-74
2023/08/25 07:40:23;;;;;;;23.15;20.27;;;;;;;19.17;100.00;100583.25;5069943;28;20032;-75
2023/08/25 07:42:48;;;;;;;21.63;19.33;;;;;;;19.19;100.00;100581.09;5067931;28;20373;-75
2023/08/25 07:45:13;;;;;;;24.25;21.75;;;;;;;19.15;100.00;100571.78;5070249;28;20187;-75
2023/08/25 07:47:39;;;;;;;22.77;20.38;;;;;;;19.16;100.00;100575.31;5068710;28;20036;-78
2023/08/25 07:50:05;;;;;;;22.48;20.17;;;;;;;19.20;100.00;100566.38;5068399;28;20522;-78
2023/08/25 07:52:31;;;;;;;23.58;21.08;;;;;;;19.24;100.00;100580.31;5069210;28;20058;-78
2023/08/25 07:54:57;;;;;;;26.38;20.52;;;;;;;19.31;100.00;100577.34;5068767;28;20032;-78
2023/08/25 07:57:22;;;;;;;21.92;19.73;;;;;;;19.35;100.00;100589.41;5067662;28;20029;-78
2023/08/25 07:59:50;;;;;;;21.80;19.55;;;;;;;19.37;100.00;100584.50;5068729;28;20033;-77
2023/08/25 08:02:16;;;;;;;23.33;20.83;;;;;;;19.37;100.00;100581.78;5067677;28;20074;-78
2023/08/25 08:04:41;;;;;;;22.42;20.02;;;;;;;19.43;100.00;100585.34;5069500;28;20032;-77
2023/08/25 08:07:06;;;;;;;21.85;19.35;;;;;;;19.51;100.00;100577.50;5068476;28;20106;-78
2023/08/25 08:09:32;;;;;;;21.15;18.92;;;;;;;19.66;100.00;100573.19;5068335;28;20028;-78
2023/08/25 08:11:58;;;;;;;21.55;17.98;;;;;;;19.63;100.00;100565.53;5049017;28;20049;-77
2023/08/25 08:14:23;;;;;;;23.52;18.90;;;;;;;19.62;100.00;100572.06;5089149;28;20108;-77
2023/08/25 08:16:49;;;;;;;19.92;17.58;;;;;;;19.68;100.00;100557.38;5069071;28;20460;-77
2023/08/25 08:19:15;;;;;;;21.95;17.88;;;;;;;19.59;100.00;100564.44;5088534;28;20024;-78
2023/08/25 08:21:43;;;;;;;22.50;18.70;;;;;;;19.62;100.00;100577.53;5091304;28;20036;-77
2023/08/25 08:24:09;;;;;;;19.48;17.30;;;;;;;19.70;100.00;100585.25;5085791;28;20044;-77
2023/08/25 08:26:36;;;;;;;19.83;17.20;;;;;;;19.77;100.00;100585.81;5089286;28;20360;-77
2023/08/25 08:29:02;;;;;;;20.40;17.30;;;;;;;19.60;100.00;100588.72;5082175;28;20472;-77
2023/08/25 08:31:29;;;;;;;19.15;16.98;;;;;;;19.58;100.00;100596.38;5088594;28;20043;-77
2023/08/25 08:33:54;;;;;;;20.33;15.90;;;;;;;19.66;100.00;100615.00;5087782;28;20468;-77
2023/08/25 08:36:20;;;;;;;19.45;15.95;;;;;;;19.71;100.00;100630.59;5090742;28;20080;-77
2023/08/25 08:38:45;;;;;;;20.65;16.55;;;;;;;19.73;100.00;100635.75;5085842;28;20036;-77
2023/08/25 08:41:11;;;;;;;23.65;17.23;;;;;;;19.69;100.00;100649.13;5085099;28;20376;-76
2023/08/25 08:43:38;;;;;;;19.10;15.80;;;;;;;19.62;100.00;100670.38;5084724;28;20043;-76
2023/08/25 08:46:04;;;;;;;18.58;15.73;;;;;;;19.60;100.00;100688.94;5068007;28;20051;-76
2023/08/25 08:48:34;;;;;;;19.92;16.73;;;;;;;19.54;100.00;100697.09;5069705;28;20028;-76
2023/08/25 08:51:00;;;;;;;22.85;16.33;;;;;;;19.49;100.00;100707.97;5051983;28;20025;-77
2023/08/25 08:53:26;;;;;;;22.23;16.50;;;;;;;19.27;100.00;100686.22;5067683;28;20020;-77
2023/08/25 08:55:52;;;;;;;21.55;16.58;;;;;;;19.06;100.00;100682.50;5086648;28;20066;-77
2023/08/25 08:58:18;;;;;;;24.92;17.25;;;;;;;18.85;100.00;100671.34;5086498;28;20387;-77
2023/08/25 09:00:43;;;;;;;22.08;17.05;;;;;;;18.73;100.00;100678.84;5087430;28;20468;-76
2023/08/25 09:03:09;;;;;;;20.40;15.88;;;;;;;18.59;100.00;100676.50;5086295;28;20013;-77
2023/08/25 09:05:35;;;;;;;19.83;15.63;;;;;;;18.53;100.00;100666.66;5069888;28;20383;-78
2023/08/25 09:08:06;;;;;;;18.83;15.15;;;;;;;18.52;100.00;100645.06;5051974;28;20028;-76
2023/08/25 09:10:31;;;;;;;18.85;16.00;;;;;;;18.41;100.00;100625.06;5087662;28;20459;-76
2023/08/25 09:12:57;;;;;;;20.10;15.77;;;;;;;18.39;100.00;100632.66;5088762;28;20044;-76
2023/08/25 09:15:26;;;;;;;20.65;16.00;;;;;;;18.42;100.00;100632.16;5087590;28;20441;-76
2023/08/25 09:18:02;;;;;;;18.42;15.93;;;;;;;18.38;100.00;100631.00;5085869;28;20024;-75
2023/08/25 09:20:28;;;;;;;;;;;;;;;18.47;100.00;100629.50;5105663;28;20083;-75
2023/08/25 09:22:57;;;;;;;16.02;14.05;;;;;;;18.49;100.00;100619.16;5089427;28;20336;-76
2023/08/25 09:25:23;;;;;;;16.88;13.30;;;;;;;18.44;100.00;100619.91;5088863;28;20016;-74
2023/08/25 09:27:55;;;;;;;15.55;13.77;;;;;;;18.40;100.00;100601.59;5087575;28;20401;-75
2023/08/25 09:30:20;;;;;;;15.65;13.38;;;;;;;18.41;100.00;100595.06;5088553;28;20031;-75
2023/08/25 09:32:46;;;;;;;17.90;14.02;;;;;;;18.38;100.00;100588.25;5091580;28;20032;-75
2023/08/25 09:35:13;;;;;;;15.60;13.68;;;;;;;18.40;100.00;100591.53;5091758;28;20078;-75
2023/08/25 09:37:41;;;;;;;15.13;12.77;;;;;;;18.43;100.00;100598.38;5091297;28;20032;-75
2023/08/25 09:40:17;;;;;;;14.07;12.60;;;;;;;18.51;100.00;100611.56;5092217;28;20063;-75
2023/08/25 09:42:42;;;;;;;13.70;12.30;;;;;;;18.58;100.00;100608.63;5091677;28;20036;-75
2023/08/25 09:45:11;;;;;;;12.95;11.60;;;;;;;18.54;100.00;100619.19;5091457;28;20024;-75
2023/08/25 09:47:37;;;;;;;14.98;11.70;;;;;;;18.52;100.00;100620.53;5088624;28;20122;-75
2023/08/25 09:50:03;;;;;;;14.20;11.95;;;;;;;18.53;100.00;100636.66;5090706;28;20452;-75
2023/08/25 09:52:29;;;;;;;13.27;11.30;;;;;;;18.49;100.00;100651.88;5087038;28;20099;-76
2023/08/25 09:54:54;;;;;;;14.73;12.13;;;;;;;18.47;100.00;100654.03;5055764;28;20324;-75
2023/08/25 09:57:20;;;;;;;14.93;11.48;;;;;;;18.52;100.00;100642.34;5090850;28;20035;-76
2023/08/25 09:59:45;;;;;;;14.95;11.57;;;;;;;18.47;100.00;100634.94;5090343;28;20095;-76
2023/08/25 10:02:10;;;;;;;14.80;12.20;;;;;;;18.39;100.00;100627.22;5089265;28;20246;-76
2023/08/25 10:04:36;;;;;;;15.75;12.15;;;;;;;18.45;100.00;100648.81;5056406;28;20147;-76
2023/08/25 10:07:02;;;;;;;14.85;12.70;;;;;;;18.47;100.00;100648.56;5073140;28;20043;-76
2023/08/25 10:09:27;;;;;;;13.40;11.93;;;;;;;18.48;100.00;100652.94;5089164;28;20024;-76
2023/08/25 10:11:52;;;;;;;13.02;11.45;;;;;;;18.48;100.00;100647.50;5066255;28;20516;-78
2023/08/25 10:14:20;;;;;;;13.82;12.35;;;;;;;18.53;100.00;100631.22;5067721;28;20028;-76
2023/08/25 10:16:49;;;;;;;13.95;12.55;;;;;;;18.50;100.00;100609.91;5024259;28;20023;-77
2023/08/25 10:19:15;;;;;;;14.70;12.30;;;;;;;18.52;100.00;100606.91;5067363;28;20423;-76
2023/08/25 10:21:44;;;;;;;13.43;11.77;;;;;;;18.72;100.00;100603.56;5071786;28;20024;-76
2023/08/25 10:24:09;;;;;;;15.38;12.27;;;;;;;18.72;100.00;100596.22;5050573;28;20045;-76
2023/08/25 10:26:35;;;;;;;12.32;11.02;;;;;;;18.74;100.00;100601.41;5052372;28;20439;-76
2023/08/25 10:29:01;;;;;;;13.90;11.05;;;;;;;18.74;100.00;100591.34;5061044;28;20029;-76
2023/08/25 10:31:27;;;;;;;12.98;11.57;;;;;;;18.66;100.00;100560.97;5051690;28;20051;-76
2023/08/25 10:33:53;;;;;;;14.18;11.02;;;;;;;18.60;100.00;100552.75;5050917;28;20055;-76
2023/08/25 10:36:20;;;;;;;15.35;11.98;;;;;;;18.55;100.00;100549.97;5071256;28;20040;-76
2023/08/25 10:38:54;;;;;;;13.30;11.90;;;;;;;18.54;100.00;100570.13;5068597;28;20027;-75
2023/08/25 10:41:20;;;;;;;12.20;10.90;;;;;;;18.64;100.00;100593.94;5070052;28;20036;-76
2023/08/25 10:43:47;;;;;;;14.35;11.18;;;;;;;18.84;100.00;100593.34;5069946;28;20416;-76
2023/08/25 10:46:13;;;;;;;11.95;9.90;;;;;;;18.95;100.00;100602.47;5067312;28;20548;-76
2023/08/25 10:48:39;;;;;;;10.70;9.60;;;;;;;18.99;100.00;100609.03;5063255;28;20031;-76
2023/08/25 10:51:11;;;;;;;10.82;9.77;;;;;;;19.13;100.00;100603.97;5070100;28;20040;-76
2023/08/25 10:53:47;;;;;;;9.63;8.63;;;;;;;19.17;100.00;100607.81;5069650;28;20023;-76
2023/08/25 10:56:18;;;;;;;9.15;8.30;;;;;;;19.16;100.00;100600.72;5067476;28;20096;-76
2023/08/25 10:59:03;;;;;;;11.07;8.52;;;;;;;19.26;100.00;100613.63;5064974;28;20120;-75